Time;durP1;ratioP1;P1;durP2;ratioP2;P2;SDS_P1;SDS_P2;PMS_P1;PMS_P2;Temp;Humidity;BMP_temperature;BMP_pressure;BME280_temperature;BME280_humidity;BME280_pressure;Samples;Min_cycle;Max_cycle;Signal;HPM_P1;HPM_P2
2022/01/16 00:01:59;;;;;;;140.82;50.40;;;-2.90;99.90;;;;;;5082979;28;20031;-80
2022/01/16 00:04:07;;;;;;;97.97;39.30;;;-2.90;99.90;;;;;;5077746;28;20402;-80
2022/01/16 00:06:34;;;;;;;97.43;39.72;;;-4.90;99.80;;;;;;5063639;28;20494;-80
2022/01/16 00:08:59;;;;;;;118.57;46.22;;;-3.00;99.90;;;;;;5059383;28;20514;-80
2022/01/16 00:11:29;;;;;;;123.80;46.88;;;-0.90;99.90;;;;;;5059474;28;20236;-80
2022/01/16 00:13:55;;;;;;;82.80;34.22;;;-2.80;99.90;;;;;;5060118;28;20670;-80
2022/01/16 00:16:21;;;;;;;90.57;37.67;;;-2.90;99.90;;;;;;5060538;28;20377;-79
2022/01/16 00:18:49;;;;;;;123.70;48.20;;;-2.10;99.90;;;;;;5060760;28;20024;-80
2022/01/16 00:21:37;;;;;;;93.55;38.00;;;-2.90;99.90;;;;;;5060384;28;20025;-80
2022/01/16 00:24:03;;;;;;;98.75;39.33;;;-3.00;99.80;;;;;;5061098;28;20013;-79
2022/01/16 00:26:35;;;;;;;111.47;42.70;;;-3.00;99.80;;;;;;5060878;28;20101;-80
2022/01/16 00:29:01;;;;;;;89.68;36.85;;;-3.00;99.90;;;;;;5059442;28;20032;-80
2022/01/16 00:31:30;;;;;;;97.63;38.85;;;-2.20;99.90;;;;;;5061163;28;20022;-80
2022/01/16 00:33:55;;;;;;;138.50;50.38;;;-3.20;99.90;;;;;;5060385;28;20320;-79
2022/01/16 00:36:22;;;;;;;128.23;47.50;;;-2.50;99.90;;;;;;5059196;28;20057;-80
2022/01/16 00:38:49;;;;;;;112.38;42.97;;;-3.00;99.90;;;;;;5058669;28;20422;-80
2022/01/16 00:41:18;;;;;;;122.32;49.53;;;-3.00;99.90;;;;;;5060101;28;20051;-80
2022/01/16 00:43:48;;;;;;;86.25;35.63;;;-2.80;99.90;;;;;;5058843;28;20028;-80
2022/01/16 00:46:14;;;;;;;90.43;36.90;;;-3.00;99.90;;;;;;5059946;28;20107;-80
2022/01/16 00:48:40;;;;;;;116.07;42.95;;;-3.00;99.90;;;;;;5058947;28;20033;-80
2022/01/16 00:51:06;;;;;;;122.65;45.42;;;-2.60;99.90;;;;;;5060194;28;20035;-80
2022/01/16 00:53:31;;;;;;;233.18;75.45;;;-3.00;99.90;;;;;;5060395;28;20017;-80
2022/01/16 00:55:57;;;;;;;221.93;73.03;;;-2.40;99.90;;;;;;5060502;28;20024;-80
2022/01/16 00:58:23;;;;;;;176.45;60.92;;;-3.00;99.60;;;;;;5059390;28;20623;-80
2022/01/16 01:00:51;;;;;;;149.70;55.35;;;-3.00;99.50;;;;;;5059932;28;20089;-79
2022/01/16 01:03:20;;;;;;;108.13;38.72;;;-0.40;99.90;;;;;;5058862;28;20112;-81
2022/01/16 01:05:46;;;;;;;104.50;40.28;;;-3.00;99.40;;;;;;5060310;28;20047;-79
2022/01/16 01:08:13;;;;;;;97.78;40.00;;;-2.90;99.40;;;;;;5058918;28;20075;-81
2022/01/16 01:10:41;;;;;;;94.85;40.22;;;-2.60;99.40;;;;;;5080605;28;20643;-80
2022/01/16 01:13:31;;;;;;;83.60;34.78;;;-2.20;99.90;;;;;;5062245;28;20036;-80
2022/01/16 01:16:03;;;;;;;114.85;41.80;;;-2.40;99.30;;;;;;5062401;28;20420;-79
2022/01/16 01:18:33;;;;;;;94.38;38.22;;;-3.10;99.20;;;;;;5062448;28;20702;-80
2022/01/16 01:21:02;;;;;;;86.55;34.95;;;-3.10;99.40;;;;;;5080801;28;20050;-81
2022/01/16 01:23:29;;;;;;;65.80;27.83;;;-3.20;99.50;;;;;;5080269;28;20404;-80
2022/01/16 01:25:55;;;;;;;68.32;28.13;;;-3.20;99.80;;;;;;5062141;28;20103;-80
2022/01/16 01:28:21;;;;;;;58.67;26.48;;;-3.20;99.70;;;;;;5080842;28;20031;-80
2022/01/16 01:30:47;;;;;;;60.70;27.42;;;-2.80;99.90;;;;;;5061772;28;20289;-79
2022/01/16 01:33:15;;;;;;;68.68;29.60;;;-3.20;99.90;;;;;;5062930;28;20031;-80
2022/01/16 01:35:42;;;;;;;62.70;26.98;;;-2.20;99.90;;;;;;5062539;28;20031;-80
2022/01/16 01:38:10;;;;;;;75.15;33.15;;;-3.10;99.70;;;;;;5061748;28;20020;-80
2022/01/16 01:40:37;;;;;;;82.20;37.33;;;-3.20;99.70;;;;;;5061872;28;20035;-80
2022/01/16 01:51:02;;;;;;;81.38;38.28;;;-3.00;99.90;;;;;;5062272;28;20034;-80
2022/01/16 01:51:32;;;;;;;311.00;143.20;;;-3.20;99.90;;;;;;5083046;28;20034;-80
2022/01/16 01:53:58;;;;;;;307.40;144.48;;;-2.70;99.90;;;;;;5091536;28;20044;-80
2022/01/16 01:56:26;;;;;;;310.23;147.20;;;-2.20;99.90;;;;;;5090332;28;20020;-80
2022/01/16 01:58:59;;;;;;;308.52;148.38;;;-3.20;99.90;;;;;;5091206;28;20034;-81
2022/01/16 02:01:27;;;;;;;318.60;146.75;;;-2.50;99.90;;;;;;5064972;28;20039;-81
2022/01/16 02:03:53;;;;;;;237.48;108.55;;;-3.20;99.90;;;;;;5062578;28;20054;-80
2022/01/16 02:06:28;;;;;;;133.30;59.95;;;-3.10;99.90;;;;;;5062203;28;20112;-81
2022/01/16 02:09:05;;;;;;;96.38;41.95;;;-3.20;99.90;;;;;;5080351;28;20131;-80
2022/01/16 02:11:32;;;;;;;64.47;29.65;;;-3.20;99.90;;;;;;5080252;28;20317;-80
2022/01/16 02:14:22;;;;;;;55.28;28.17;;;-3.10;99.60;;;;;;5079955;28;20028;-80
2022/01/16 02:34:29;;;;;;;38.42;19.02;;;-3.70;99.00;;;;;;5096522;28;20520;-80
2022/01/16 02:36:17;;;;;;;39.38;18.92;;;-2.80;99.10;;;;;;5088758;28;20042;-80
2022/01/16 02:38:45;;;;;;;40.63;18.75;;;-3.70;99.20;;;;;;5071097;28;20051;-81
2022/01/16 02:41:11;;;;;;;39.95;19.17;;;-3.80;98.80;;;;;;5070693;28;20024;-80
2022/01/16 02:43:41;;;;;;;42.00;19.35;;;-3.80;99.10;;;;;;5081131;28;20031;-81
2022/01/16 02:48:44;;;;;;;44.13;17.33;;;-3.20;99.50;;;;;;5080441;28;20077;-80
2022/01/16 02:51:10;;;;;;;35.13;16.25;;;-3.90;99.30;;;;;;5061733;28;20549;-80
2022/01/16 02:53:36;;;;;;;35.97;16.23;;;-3.60;99.30;;;;;;5079223;28;20054;-80
2022/01/16 02:56:02;;;;;;;42.47;16.85;;;-3.80;99.10;;;;;;5079348;28;20071;-80
2022/01/16 02:58:28;;;;;;;34.53;16.63;;;-3.90;99.10;;;;;;5061861;28;20309;-80
2022/01/16 03:00:56;;;;;;;36.38;17.63;;;-3.90;98.70;;;;;;5081507;28;20036;-80
2022/01/16 03:03:27;;;;;;;42.15;17.13;;;-3.90;98.30;;;;;;5085547;28;20024;-80
2022/01/16 03:05:52;;;;;;;39.97;17.27;;;-3.90;98.60;;;;;;5066688;28;20566;-80
2022/01/16 03:08:18;;;;;;;40.53;17.52;;;-3.90;98.60;;;;;;5085722;28;20032;-79
2022/01/16 03:13:32;;;;;;;42.00;17.38;;;-4.00;98.90;;;;;;5083268;28;20055;-80
2022/01/16 03:15:59;;;;;;;39.13;17.13;;;-4.10;98.60;;;;;;5064391;28;20016;-79
2022/01/16 03:23:38;;;;;;;35.75;17.10;;;-4.10;98.90;;;;;;5081896;28;20054;-79
2022/01/16 03:26:04;;;;;;;30.98;15.05;;;-4.20;98.80;;;;;;5063370;28;20339;-80
2022/01/16 03:28:30;;;;;;;36.50;16.05;;;-4.10;98.80;;;;;;5081836;28;20036;-80
2022/01/16 03:30:56;;;;;;;38.40;16.67;;;-4.10;99.00;;;;;;5063542;28;20056;-80
2022/01/16 03:33:22;;;;;;;34.22;15.95;;;-4.10;98.60;;;;;;5082053;28;20016;-79
2022/01/16 03:35:52;;;;;;;44.38;19.55;;;-4.20;98.60;;;;;;5081919;28;20262;-79
2022/01/16 03:38:21;;;;;;;35.97;17.45;;;-4.30;98.60;;;;;;5081583;28;20244;-80
2022/01/16 03:40:47;;;;;;;38.00;17.23;;;-4.20;98.60;;;;;;5081931;28;20032;-80
2022/01/16 03:43:14;;;;;;;33.33;15.80;;;-3.50;98.90;;;;;;5081602;28;20533;-80
2022/01/16 03:45:47;;;;;;;37.35;16.10;;;-4.20;98.70;;;;;;5081725;28;20370;-79
2022/01/16 03:48:14;;;;;;;37.78;15.40;;;-4.20;98.70;;;;;;5081532;28;20016;-80
2022/01/16 03:50:41;;;;;;;41.83;18.48;;;-4.20;98.60;;;;;;5063293;28;20036;-80
2022/01/16 03:53:07;;;;;;;40.72;18.98;;;-4.30;98.70;;;;;;5081308;28;20012;-79
2022/01/16 03:55:34;;;;;;;57.35;27.13;;;-4.40;98.70;;;;;;5080880;28;20058;-80
2022/01/16 03:58:00;;;;;;;38.90;18.15;;;-4.30;99.00;;;;;;5081194;28;20080;-80
2022/01/16 04:00:26;;;;;;;34.10;16.38;;;-4.40;98.70;;;;;;5081122;28;20020;-80
2022/01/16 04:02:52;;;;;;;37.20;17.20;;;-4.30;98.90;;;;;;5062755;28;20016;-79
2022/01/16 04:05:27;;;;;;;52.00;22.98;;;-4.30;98.60;;;;;;5081269;28;20077;-80
2022/01/16 04:07:53;;;;;;;117.93;55.63;;;-4.30;99.00;;;;;;5062802;28;20067;-79
2022/01/16 04:10:21;;;;;;;138.05;60.13;;;-4.40;99.20;;;;;;5080283;28;20136;-80
2022/01/16 04:12:47;;;;;;;138.68;63.28;;;-4.30;99.80;;;;;;5062274;28;20548;-80
2022/01/16 04:17:44;;;;;;;134.40;56.95;;;-4.30;99.90;;;;;;5081081;28;20494;-80
2022/01/16 04:20:15;;;;;;;175.73;77.00;;;-4.30;99.60;;;;;;5062347;28;20031;-80
2022/01/16 04:22:42;;;;;;;104.97;46.70;;;-4.30;99.90;;;;;;5063263;28;20051;-80
2022/01/16 04:25:08;;;;;;;64.22;29.90;;;-4.20;99.70;;;;;;5063015;28;20464;-80
2022/01/16 04:27:37;;;;;;;76.97;34.75;;;-4.30;99.30;;;;;;5062227;28;20035;-80
2022/01/16 04:30:03;;;;;;;96.32;40.63;;;-4.30;99.20;;;;;;5062811;28;20032;-80
2022/01/16 04:32:29;;;;;;;85.47;37.13;;;-4.30;99.10;;;;;;5081138;28;20041;-79
2022/01/16 04:35:01;;;;;;;89.25;38.97;;;-4.30;99.00;;;;;;5062721;28;20054;-79
2022/01/16 04:37:27;;;;;;;99.65;48.42;;;-1.70;99.80;;;;;;5081042;28;20095;-81
2022/01/16 04:39:59;;;;;;;154.85;67.72;;;-5.10;99.30;;;;;;5061380;28;20547;-80
2022/01/16 04:45:11;;;;;;;167.38;72.47;;;-4.00;99.90;;;;;;5080688;28;20304;-80
2022/01/16 04:47:37;;;;;;;163.10;72.53;;;-4.30;99.90;;;;;;5062212;28;20024;-80
2022/01/16 04:50:03;;;;;;;126.53;57.72;;;-3.60;99.90;;;;;;5080886;28;20058;-80
2022/01/16 04:52:29;;;;;;;88.63;37.17;;;-4.30;99.90;;;;;;5080610;28;20020;-79
2022/01/16 04:54:55;;;;;;;71.60;32.88;;;-4.40;99.20;;;;;;5080625;28;20501;-80
2022/01/16 04:57:21;;;;;;;147.35;65.45;;;-4.40;99.00;;;;;;5080235;28;20482;-80
2022/01/16 04:59:46;;;;;;;187.68;79.75;;;-4.30;99.90;;;;;;5080655;28;20035;-80
2022/01/16 05:02:12;;;;;;;184.25;78.65;;;-4.50;99.90;;;;;;5080684;28;20013;-81
2022/01/16 05:04:38;;;;;;;185.95;78.97;;;-3.50;99.90;;;;;;5081462;28;20032;-80
2022/01/16 05:07:04;;;;;;;189.43;82.63;;;-4.40;99.90;;;;;;5081403;28;20052;-80
2022/01/16 05:09:30;;;;;;;209.73;89.38;;;-4.50;99.90;;;;;;5062884;28;20082;-80
2022/01/16 05:11:58;;;;;;;145.70;61.17;;;-4.50;99.90;;;;;;5081737;28;20048;-80
2022/01/16 05:17:07;;;;;;;209.43;81.78;;;-4.60;99.90;;;;;;5086872;28;20484;-80
2022/01/16 05:19:33;;;;;;;203.85;84.63;;;-4.40;99.90;;;;;;5091233;28;20681;-80
2022/01/16 05:21:59;;;;;;;201.25;83.60;;;-4.60;99.90;;;;;;5091261;28;20133;-80
2022/01/16 05:24:31;;;;;;;211.07;88.15;;;-4.60;99.90;;;;;;5074190;28;20038;-80
2022/01/16 05:26:57;;;;;;;220.10;86.80;;;-4.70;99.90;;;;;;5085820;28;20008;-80
2022/01/16 05:29:23;;;;;;;207.65;85.80;;;-2.60;99.90;;;;;;5081179;28;20311;-80
2022/01/16 05:31:49;;;;;;;214.73;85.40;;;-3.10;99.90;;;;;;5080946;28;20267;-80
2022/01/16 05:34:19;;;;;;;202.38;84.20;;;-4.80;99.90;;;;;;5080464;28;20020;-80
2022/01/16 05:36:46;;;;;;;214.80;84.45;;;-4.70;99.90;;;;;;5061951;28;20028;-80
2022/01/16 05:39:12;;;;;;;196.50;81.38;;;-4.70;99.90;;;;;;5079309;28;20027;-80
2022/01/16 05:41:38;;;;;;;215.43;84.65;;;-4.00;99.90;;;;;;5079883;28;20426;-80
2022/01/16 05:44:04;;;;;;;193.77;82.93;;;-4.00;99.90;;;;;;5061035;28;20036;-80
2022/01/16 05:46:30;;;;;;;213.73;84.70;;;-4.80;99.90;;;;;;5079654;28;20502;-79
2022/01/16 05:48:59;;;;;;;209.38;83.00;;;-4.80;99.90;;;;;;5079686;28;20027;-80
2022/01/16 05:51:24;;;;;;;232.63;89.65;;;-2.30;99.90;;;;;;5080079;28;20025;-79
2022/01/16 05:53:51;;;;;;;226.88;92.15;;;-6.40;99.90;;;;;;5061116;28;20248;-80
2022/01/16 05:56:17;;;;;;;208.32;85.70;;;-4.80;99.90;;;;;;5061191;28;20024;-80
2022/01/16 05:58:45;;;;;;;221.75;85.47;;;-4.80;99.90;;;;;;5080229;28;20329;-80
2022/01/16 06:01:11;;;;;;;212.40;85.97;;;-4.80;99.90;;;;;;5079999;28;20030;-80
2022/01/16 06:03:37;;;;;;;217.80;86.65;;;-3.80;99.90;;;;;;5061732;28;20016;-79
2022/01/16 06:06:03;;;;;;;190.35;78.25;;;-4.50;99.90;;;;;;5060857;28;20047;-80
2022/01/16 06:08:28;;;;;;;187.25;72.88;;;-4.90;99.90;;;;;;5061567;28;20031;-80
2022/01/16 06:10:54;;;;;;;125.93;52.60;;;-4.90;99.90;;;;;;5062505;28;20258;-80
2022/01/16 06:13:20;;;;;;;80.25;35.47;;;-4.00;99.90;;;;;;5085780;28;20020;-80
2022/01/16 06:15:49;;;;;;;43.28;19.88;;;-4.90;99.90;;;;;;5086534;28;20463;-80
2022/01/16 06:18:14;;;;;;;37.40;15.60;;;-5.10;99.50;;;;;;5085262;28;20039;-79
2022/01/16 06:20:41;;;;;;;23.85;12.15;;;-5.00;99.30;;;;;;5062113;28;20024;-80
2022/01/16 06:23:08;;;;;;;37.70;16.77;;;-4.60;99.10;;;;;;5079802;28;20095;-79
2022/01/16 06:25:33;;;;;;;42.83;20.25;;;-4.20;99.40;;;;;;5061150;28;20031;-80
2022/01/16 06:27:59;;;;;;;43.40;19.45;;;-5.10;99.70;;;;;;5079546;28;20331;-80
2022/01/16 06:30:25;;;;;;;106.35;44.25;;;-5.10;99.90;;;;;;5078926;28;20583;-81
2022/01/16 06:32:51;;;;;;;102.22;44.83;;;-3.30;99.90;;;;;;5078804;28;20080;-80
2022/01/16 06:35:17;;;;;;;109.20;47.00;;;-3.70;99.90;;;;;;5060667;28;20032;-80
2022/01/16 06:37:44;;;;;;;124.32;51.78;;;-4.20;99.90;;;;;;5059934;28;20321;-80
2022/01/16 06:40:13;;;;;;;135.90;56.92;;;-4.30;99.90;;;;;;5078776;28;20036;-80
2022/01/16 06:42:39;;;;;;;141.98;59.22;;;-4.90;99.90;;;;;;5082353;28;20111;-80
2022/01/16 06:45:07;;;;;;;122.28;48.97;;;-4.90;99.90;;;;;;5064699;28;20027;-80
2022/01/16 06:47:33;;;;;;;112.13;46.63;;;-4.90;99.90;;;;;;5082549;28;20016;-80
2022/01/16 06:49:59;;;;;;;152.77;62.22;;;-4.90;99.90;;;;;;5082849;28;20043;-79
2022/01/16 06:52:25;;;;;;;111.70;49.40;;;-4.90;99.90;;;;;;5083071;28;20027;-80
2022/01/16 06:54:50;;;;;;;96.95;41.28;;;-4.90;99.90;;;;;;5082727;28;20487;-80
2022/01/16 06:57:16;;;;;;;75.97;34.70;;;-3.90;99.90;;;;;;5082311;28;20024;-80
2022/01/16 06:59:45;;;;;;;80.82;36.47;;;-3.80;99.90;;;;;;5064463;28;20367;-79
2022/01/16 07:02:16;;;;;;;89.65;39.85;;;-3.60;99.90;;;;;;5063869;28;20020;-80
2022/01/16 07:04:46;;;;;;;99.82;40.58;;;-4.70;99.50;;;;;;5063934;28;20328;-80
2022/01/16 07:07:12;;;;;;;167.05;66.80;;;-4.70;99.40;;;;;;5082149;28;20297;-80
2022/01/16 07:09:39;;;;;;;209.90;78.15;;;-4.60;99.80;;;;;;5063394;28;20139;-80
2022/01/16 07:12:06;;;;;;;205.82;80.55;;;-4.60;99.90;;;;;;5082184;28;20012;-80
2022/01/16 07:14:32;;;;;;;202.77;82.35;;;-4.60;99.90;;;;;;5082203;28;20051;-79
2022/01/16 07:16:58;;;;;;;202.45;82.47;;;-4.50;99.90;;;;;;5063782;28;20020;-79
2022/01/16 07:19:24;;;;;;;200.23;82.82;;;-4.40;99.90;;;;;;5081980;28;20058;-80
2022/01/16 07:21:49;;;;;;;205.18;85.53;;;-2.90;99.90;;;;;;5082080;28;20055;-80
2022/01/16 07:24:16;;;;;;;200.15;80.63;;;-3.30;99.90;;;;;;5082339;28;20043;-79
2022/01/16 07:26:45;;;;;;;215.07;87.00;;;-4.30;99.90;;;;;;5063847;28;20035;-80
2022/01/16 07:29:11;;;;;;;219.40;88.22;;;-2.40;99.90;;;;;;5082014;28;20032;-80
2022/01/16 07:31:40;;;;;;;223.60;93.10;;;-4.20;99.90;;;;;;5081952;28;20027;-80
2022/01/16 07:34:07;;;;;;;224.30;89.75;;;-3.20;99.90;;;;;;5063640;28;20301;-80
2022/01/16 07:36:33;;;;;;;228.73;88.80;;;-4.30;99.90;;;;;;5082029;28;20054;-80
2022/01/16 07:38:59;;;;;;;230.73;87.47;;;-3.70;99.90;;;;;;5082240;28;20032;-80
2022/01/16 07:41:25;;;;;;;246.27;92.93;;;-3.60;99.90;;;;;;5063431;28;20379;-80
2022/01/16 07:43:51;;;;;;;229.23;90.72;;;-3.70;99.90;;;;;;5081858;28;20050;-80
2022/01/16 07:46:17;;;;;;;222.75;90.20;;;-3.40;99.90;;;;;;5063121;28;20028;-80
2022/01/16 07:48:45;;;;;;;226.25;92.45;;;-3.10;99.90;;;;;;5082032;28;20259;-80
2022/01/16 07:51:11;;;;;;;224.73;88.68;;;-3.70;99.90;;;;;;5082135;28;20055;-81
2022/01/16 07:53:39;;;;;;;219.88;85.90;;;-3.70;99.90;;;;;;5062857;28;20570;-80
2022/01/16 07:56:05;;;;;;;238.00;90.03;;;-3.70;99.90;;;;;;5063968;28;20036;-80
2022/01/16 07:58:31;;;;;;;215.82;85.75;;;-3.40;99.90;;;;;;5089429;28;20072;-80
2022/01/16 08:00:57;;;;;;;215.93;87.68;;;-3.20;99.90;;;;;;5078323;28;20027;-81
2022/01/16 08:03:28;;;;;;;224.02;86.90;;;-2.20;99.90;;;;;;5096465;28;20031;-80
2022/01/16 08:05:54;;;;;;;230.18;92.70;;;-3.50;99.90;;;;;;5100528;28;20028;-80
2022/01/16 08:08:20;;;;;;;232.35;91.40;;;-3.10;99.90;;;;;;5067131;28;20040;-80
2022/01/16 08:10:48;;;;;;;240.88;92.82;;;-3.60;99.90;;;;;;5065422;28;20142;-80
2022/01/16 08:13:14;;;;;;;223.10;88.20;;;-3.40;99.90;;;;;;5064691;28;20240;-80
2022/01/16 08:15:43;;;;;;;263.25;107.88;;;-3.30;99.80;;;;;;5064919;28;20522;-80
2022/01/16 08:18:10;;;;;;;255.80;99.43;;;-3.20;99.40;;;;;;5064496;28;20047;-80
2022/01/16 08:20:36;;;;;;;254.52;98.93;;;-3.10;99.50;;;;;;5082384;28;20043;-80
2022/01/16 08:23:02;;;;;;;239.82;96.90;;;-3.00;99.20;;;;;;5064636;28;20206;-80
2022/01/16 08:25:28;;;;;;;254.38;98.57;;;-2.90;98.70;;;;;;5082643;28;20035;-80
2022/01/16 08:27:53;;;;;;;232.48;92.85;;;-2.80;98.50;;;;;;5083330;28;20058;-80
2022/01/16 08:30:19;;;;;;;235.25;93.50;;;-2.80;98.70;;;;;;5064578;28;20032;-80
2022/01/16 08:32:48;;;;;;;230.25;94.07;;;-2.60;98.30;;;;;;5081402;28;20024;-79
2022/01/16 08:35:14;;;;;;;239.05;98.93;;;-2.70;98.30;;;;;;5081936;28;20573;-80
2022/01/16 08:37:40;;;;;;;250.50;98.07;;;-2.60;98.20;;;;;;5081565;28;20308;-80
2022/01/16 08:40:13;;;;;;;248.60;98.78;;;-2.50;98.20;;;;;;5062654;28;20474;-80
2022/01/16 08:42:40;;;;;;;237.52;94.70;;;-2.40;97.60;;;;;;5080955;28;20024;-80
2022/01/16 08:45:09;;;;;;;240.07;97.47;;;-2.30;97.60;;;;;;5081351;28;20027;-81
2022/01/16 08:47:35;;;;;;;241.45;98.28;;;-2.20;97.40;;;;;;5081112;28;20012;-80
2022/01/16 08:50:04;;;;;;;257.83;103.45;;;-2.10;97.10;;;;;;5080775;28;20220;-80
2022/01/16 08:52:29;;;;;;;255.68;104.35;;;-2.00;96.70;;;;;;5081561;28;20735;-80
2022/01/16 08:54:58;;;;;;;240.50;96.72;;;-1.90;96.60;;;;;;5080907;28;20119;-80
2022/01/16 08:57:24;;;;;;;227.00;95.43;;;-1.80;96.40;;;;;;5080884;28;20030;-80
2022/01/16 08:59:53;;;;;;;231.32;99.68;;;-0.90;96.70;;;;;;5062857;28;20019;-80
2022/01/16 09:02:19;;;;;;;242.55;100.53;;;-1.00;96.80;;;;;;5080609;28;20016;-79
2022/01/16 09:04:47;;;;;;;255.65;104.10;;;-1.80;96.30;;;;;;5080881;28;20030;-79
2022/01/16 09:07:13;;;;;;;245.88;101.85;;;-1.90;96.30;;;;;;5081664;28;20025;-80
2022/01/16 09:09:39;;;;;;;262.75;106.28;;;-1.10;96.60;;;;;;5058722;28;20049;-80
2022/01/16 09:12:05;;;;;;;237.48;99.57;;;-1.60;96.10;;;;;;5060168;28;20667;-79
2022/01/16 09:14:31;;;;;;;240.80;95.38;;;-1.70;96.00;;;;;;5061452;28;20453;-79
2022/01/16 09:17:03;;;;;;;236.63;95.72;;;-1.70;96.00;;;;;;5063471;28;20198;-79
2022/01/16 09:19:31;;;;;;;230.43;92.13;;;-2.00;96.00;;;;;;5063569;28;20064;-79
2022/01/16 09:21:57;;;;;;;240.73;98.93;;;-2.30;95.90;;;;;;5063977;28;20055;-80
2022/01/16 09:24:25;;;;;;;222.93;95.95;;;-1.50;96.20;;;;;;5062836;28;20020;-79
2022/01/16 09:26:54;;;;;;;244.80;102.22;;;-1.90;96.40;;;;;;5059560;28;20024;-80
2022/01/16 09:29:21;;;;;;;249.18;102.97;;;-1.30;96.20;;;;;;5060829;28;20122;-80
2022/01/16 09:31:47;;;;;;;246.52;103.32;;;-1.40;95.90;;;;;;5059091;28;20088;-80
2022/01/16 09:34:13;;;;;;;255.40;104.90;;;-1.20;94.90;;;;;;5060394;28;20099;-80
2022/01/16 09:36:40;;;;;;;248.25;103.95;;;-1.00;94.50;;;;;;5060452;28;20428;-80
2022/01/16 09:39:06;;;;;;;238.65;99.68;;;-0.90;94.50;;;;;;5058515;28;20059;-79
2022/01/16 09:41:34;;;;;;;247.07;103.03;;;-0.90;94.20;;;;;;5058331;28;20296;-80
2022/01/16 09:44:01;;;;;;;244.18;100.18;;;-0.70;93.70;;;;;;5059671;28;20034;-80
2022/01/16 09:46:26;;;;;;;235.73;98.88;;;-0.90;93.60;;;;;;5060028;28;20441;-81
2022/01/16 09:48:52;;;;;;;229.40;96.65;;;0.00;93.80;;;;;;5059492;28;20016;-80
2022/01/16 09:51:18;;;;;;;235.65;99.10;;;-0.70;93.40;;;;;;5058455;28;20058;-80
2022/01/16 09:53:44;;;;;;;226.23;98.47;;;-0.40;93.10;;;;;;5060024;28;20033;-80
2022/01/16 09:56:11;;;;;;;306.52;125.95;;;-0.20;93.20;;;;;;5059465;28;20305;-79
2022/01/16 09:58:41;;;;;;;290.20;120.32;;;-0.10;92.60;;;;;;5058161;28;20043;-80
2022/01/16 10:01:09;;;;;;;286.35;122.32;;;0.10;92.40;;;;;;5058741;28;20037;-80
2022/01/16 10:03:41;;;;;;;294.60;124.88;;;0.10;92.30;;;;;;5058361;28;20017;-80
2022/01/16 10:06:11;;;;;;;284.42;124.55;;;0.30;92.10;;;;;;5058180;28;20289;-80
2022/01/16 10:08:39;;;;;;;280.80;121.75;;;0.20;92.10;;;;;;5059001;28;20041;-80
2022/01/16 10:11:41;;;;;;;288.08;123.43;;;0.20;92.20;;;;;;5061225;28;20565;-79
2022/01/16 10:14:22;;;;;;;271.48;115.15;;;0.40;91.80;;;;;;4977757;28;20145;-80
2022/01/16 10:16:48;;;;;;;267.70;116.50;;;0.20;92.30;;;;;;4977416;28;20030;-80
2022/01/16 10:19:21;;;;;;;272.52;114.88;;;0.50;92.20;;;;;;4977362;28;20589;-80
2022/01/16 10:21:51;;;;;;;268.88;114.88;;;0.30;91.90;;;;;;4961053;28;20037;-79
2022/01/16 10:24:28;;;;;;;264.50;115.82;;;0.10;91.90;;;;;;4960708;28;20241;-79
2022/01/16 10:27:09;;;;;;;260.10;111.55;;;0.20;92.30;;;;;;4961281;28;20034;-80
2022/01/16 10:29:40;;;;;;;265.13;117.30;;;0.40;92.30;;;;;;4977116;28;20114;-79
2022/01/16 10:32:22;;;;;;;293.13;120.55;;;0.70;92.10;;;;;;4977511;28;20133;-80
2022/01/16 10:34:56;;;;;;;278.25;118.57;;;0.80;91.20;;;;;;4962679;28;20034;-80
2022/01/16 10:37:25;;;;;;;277.58;122.30;;;-0.10;90.90;;;;;;4963590;28;20031;-80
2022/01/16 10:40:03;;;;;;;275.25;118.35;;;1.60;90.90;;;;;;4961774;28;20541;-80
2022/01/16 10:42:31;;;;;;;279.75;119.20;;;1.30;89.80;;;;;;4978718;28;20102;-80
2022/01/16 10:45:07;;;;;;;287.58;121.55;;;1.30;90.30;;;;;;4961308;28;20232;-80
2022/01/16 10:47:33;;;;;;;300.48;130.13;;;1.50;90.30;;;;;;4978723;28;20295;-80
2022/01/16 10:50:11;;;;;;;284.13;120.93;;;1.60;89.90;;;;;;5043313;28;20559;-80
2022/01/16 10:52:53;;;;;;;283.02;120.70;;;1.50;89.90;;;;;;5061659;28;20591;-80
2022/01/16 10:55:26;;;;;;;273.17;115.95;;;1.50;90.00;;;;;;5061428;28;20038;-79
2022/01/16 10:58:04;;;;;;;291.40;124.82;;;1.60;89.40;;;;;;5079712;28;20559;-80
2022/01/16 11:00:30;;;;;;;268.08;123.32;;;1.90;89.50;;;;;;5081468;28;20141;-80
2022/01/16 11:03:01;;;;;;;283.02;123.78;;;2.00;88.50;;;;;;5062665;28;20123;-80
2022/01/16 11:05:28;;;;;;;290.25;127.35;;;2.00;87.90;;;;;;5081035;28;20547;-81
2022/01/16 11:08:05;;;;;;;283.88;126.53;;;2.10;87.40;;;;;;5062611;28;20028;-81
2022/01/16 11:10:35;;;;;;;288.02;124.95;;;2.10;87.50;;;;;;5061995;28;20287;-80
2022/01/16 11:13:13;;;;;;;283.85;126.32;;;1.80;88.30;;;;;;5080819;28;20069;-81
2022/01/16 11:15:54;;;;;;;262.35;117.07;;;1.80;88.00;;;;;;5080306;28;20377;-80
2022/01/16 11:18:38;;;;;;;258.77;116.07;;;1.70;89.30;;;;;;5062140;28;20024;-82
2022/01/16 11:26:22;;;;;;;271.20;115.72;;;2.50;87.30;;;;;;5094986;28;20046;-80
2022/01/16 11:28:50;;;;;;;263.33;114.25;;;2.30;86.30;;;;;;5073993;28;20138;-80
2022/01/16 11:31:17;;;;;;;271.77;120.28;;;1.10;85.30;;;;;;5085084;28;20232;-80
2022/01/16 11:33:47;;;;;;;264.35;116.72;;;2.50;85.70;;;;;;5065637;28;20212;-80
2022/01/16 11:36:18;;;;;;;273.17;115.72;;;2.60;85.30;;;;;;5064973;28;20020;-80
2022/01/16 11:38:55;;;;;;;250.95;112.20;;;2.80;83.80;;;;;;5082597;28;20099;-79
2022/01/16 11:41:26;;;;;;;261.92;111.45;;;2.90;83.60;;;;;;5082643;28;20028;-81
2022/01/16 11:43:54;;;;;;;249.80;111.85;;;3.10;82.70;;;;;;5082488;28;20043;-81
2022/01/16 11:46:41;;;;;;;251.52;111.80;;;3.20;82.60;;;;;;5082728;28;20031;-80
2022/01/16 11:49:13;;;;;;;259.98;111.18;;;3.30;83.20;;;;;;5064314;28;20109;-80
2022/01/16 11:51:48;;;;;;;248.23;114.07;;;3.60;82.10;;;;;;5082867;28;20056;-81
2022/01/16 11:54:38;;;;;;;239.90;108.00;;;3.80;81.20;;;;;;5082723;28;20027;-80
2022/01/16 11:57:20;;;;;;;260.40;116.20;;;1.20;78.40;;;;;;5081830;28;20024;-80
2022/01/16 11:59:48;;;;;;;250.60;109.85;;;4.20;79.80;;;;;;5064398;28;20028;-81
2022/01/16 12:02:18;;;;;;;238.25;107.60;;;4.20;79.70;;;;;;5081795;28;20020;-80
2022/01/16 12:04:44;;;;;;;238.35;107.03;;;4.30;78.20;;;;;;5082824;28;20026;-81
2022/01/16 12:07:13;;;;;;;210.65;97.10;;;4.30;75.70;;;;;;5084580;28;20107;-80
2022/01/16 12:09:59;;;;;;;219.32;97.28;;;4.50;77.50;;;;;;5065051;28;20052;-80
2022/01/16 12:12:27;;;;;;;201.70;92.32;;;4.70;75.70;;;;;;4981810;28;20097;-80
2022/01/16 12:15:17;;;;;;;187.57;85.95;;;4.70;74.90;;;;;;4965062;28;20045;-80
2022/01/16 12:17:47;;;;;;;198.45;91.60;;;4.90;75.00;;;;;;4982140;28;20035;-80
2022/01/16 12:20:17;;;;;;;195.35;88.88;;;5.00;74.80;;;;;;4982315;28;20532;-80
2022/01/16 12:23:05;;;;;;;218.95;98.93;;;4.40;73.80;;;;;;4982966;28;20382;-80
2022/01/16 12:25:36;;;;;;;261.13;117.72;;;4.90;75.80;;;;;;4987428;28;20093;-80
2022/01/16 12:28:04;;;;;;;244.57;112.13;;;5.00;75.10;;;;;;4988067;28;20129;-81
2022/01/16 12:30:49;;;;;;;242.07;110.03;;;5.00;74.80;;;;;;4986804;28;20046;-80
2022/01/16 12:33:14;;;;;;;235.88;107.03;;;5.00;74.20;;;;;;4982121;28;20019;-80
2022/01/16 12:35:50;;;;;;;225.63;105.57;;;5.00;74.20;;;;;;4979881;28;20033;-80
2022/01/16 12:38:25;;;;;;;241.33;109.83;;;5.60;72.90;;;;;;4963914;28;20034;-80
2022/01/16 12:41:11;;;;;;;234.45;104.75;;;5.20;73.30;;;;;;4980248;28;20272;-80
2022/01/16 12:43:46;;;;;;;227.43;100.38;;;5.20;73.90;;;;;;4979600;28;20493;-80
2022/01/16 12:46:14;;;;;;;218.25;100.32;;;5.30;72.20;;;;;;4979541;28;20018;-80
2022/01/16 12:48:45;;;;;;;242.82;107.40;;;5.40;73.60;;;;;;4991492;28;20606;-80
2022/01/16 12:51:13;;;;;;;262.13;119.93;;;5.40;73.40;;;;;;5063350;28;20328;-80
2022/01/16 12:53:48;;;;;;;272.55;128.50;;;5.60;73.60;;;;;;5081707;28;20111;-80
2022/01/16 12:56:36;;;;;;;283.58;133.13;;;5.70;73.70;;;;;;5081228;28;20327;-80
2022/01/16 12:59:14;;;;;;;288.17;134.80;;;5.80;73.10;;;;;;5080685;28;20532;-80
2022/01/16 13:01:51;;;;;;;275.15;129.50;;;5.90;72.50;;;;;;5062275;28;20031;-79
2022/01/16 13:04:46;;;;;;;307.42;143.27;;;6.00;72.70;;;;;;5062503;28;20028;-79
2022/01/16 13:07:17;;;;;;;273.83;129.80;;;5.90;71.50;;;;;;5075375;28;20036;-79
2022/01/16 13:09:44;;;;;;;244.57;114.25;;;5.90;70.70;;;;;;5062250;28;20044;-80
2022/01/16 13:12:13;;;;;;;264.50;125.15;;;5.80;69.80;;;;;;5080950;28;20620;-79
2022/01/16 13:14:43;;;;;;;252.95;122.90;;;5.80;70.80;;;;;;5080826;28;20217;-79